sensor_id;sensor_type;location;lat;lon;timestamp;temperature;humidity
68274;SHT30;55104;47.356;19.448;2023-03-08T00:01:48;2.40;91.36
68274;SHT30;55104;47.356;19.448;2023-03-08T00:04:53;2.28;90.96
68274;SHT30;55104;47.356;19.448;2023-03-08T00:07:56;2.24;91.35
68274;SHT30;55104;47.356;19.448;2023-03-08T00:10:58;2.17;92.03
68274;SHT30;55104;47.356;19.448;2023-03-08T00:14:00;2.08;92.91
68274;SHT30;55104;47.356;19.448;2023-03-08T00:17:04;1.98;92.94
68274;SHT30;55104;47.356;19.448;2023-03-08T00:20:07;1.90;93.00
68274;SHT30;55104;47.356;19.448;2023-03-08T00:23:11;1.82;93.00
68274;SHT30;55104;47.356;19.448;2023-03-08T00:26:13;1.74;93.15
68274;SHT30;55104;47.356;19.448;2023-03-08T00:29:15;1.73;93.16
68274;SHT30;55104;47.356;19.448;2023-03-08T00:32:17;1.68;92.94
68274;SHT30;55104;47.356;19.448;2023-03-08T00:35:20;1.64;92.87
68274;SHT30;55104;47.356;19.448;2023-03-08T00:38:23;1.62;92.81
68274;SHT30;55104;47.356;19.448;2023-03-08T00:41:25;1.57;92.80
68274;SHT30;55104;47.356;19.448;2023-03-08T00:44:27;1.47;92.89
68274;SHT30;55104;47.356;19.448;2023-03-08T00:47:29;1.45;92.86
68274;SHT30;55104;47.356;19.448;2023-03-08T00:50:33;1.40;93.02
68274;SHT30;55104;47.356;19.448;2023-03-08T00:53:35;1.46;92.98
68274;SHT30;55104;47.356;19.448;2023-03-08T00:56:37;1.47;93.42
68274;SHT30;55104;47.356;19.448;2023-03-08T00:59:39;1.40;94.14
68274;SHT30;55104;47.356;19.448;2023-03-08T01:02:41;1.43;94.15
68274;SHT30;55104;47.356;19.448;2023-03-08T01:05:48;1.38;93.31
68274;SHT30;55104;47.356;19.448;2023-03-08T01:08:50;1.31;93.19
68274;SHT30;55104;47.356;19.448;2023-03-08T01:11:52;1.32;92.69
68274;SHT30;55104;47.356;19.448;2023-03-08T01:14:54;1.40;92.74
68274;SHT30;55104;47.356;19.448;2023-03-08T01:17:56;1.49;92.68
68274;SHT30;55104;47.356;19.448;2023-03-08T01:21:01;1.63;93.47
68274;SHT30;55104;47.356;19.448;2023-03-08T01:24:04;1.87;94.41
68274;SHT30;55104;47.356;19.448;2023-03-08T01:27:06;1.95;95.15
68274;SHT30;55104;47.356;19.448;2023-03-08T01:30:09;2.11;94.91
68274;SHT30;55104;47.356;19.448;2023-03-08T01:33:11;2.24;96.47
68274;SHT30;55104;47.356;19.448;2023-03-08T01:36:15;2.37;97.32
68274;SHT30;55104;47.356;19.448;2023-03-08T01:39:18;2.42;96.63
68274;SHT30;55104;47.356;19.448;2023-03-08T01:42:20;2.49;96.60
68274;SHT30;55104;47.356;19.448;2023-03-08T01:49:24;2.63;97.21
68274;SHT30;55104;47.356;19.448;2023-03-08T01:52:31;2.63;96.91
68274;SHT30;55104;47.356;19.448;2023-03-08T01:55:34;2.68;97.05
68274;SHT30;55104;47.356;19.448;2023-03-08T01:58:39;2.63;96.95
68274;SHT30;55104;47.356;19.448;2023-03-08T02:01:42;2.70;96.96
68274;SHT30;55104;47.356;19.448;2023-03-08T02:04:44;2.66;96.81
68274;SHT30;55104;47.356;19.448;2023-03-08T02:07:48;2.63;96.77
68274;SHT30;55104;47.356;19.448;2023-03-08T02:10:51;2.61;96.98
68274;SHT30;55104;47.356;19.448;2023-03-08T02:13:54;2.64;96.80
68274;SHT30;55104;47.356;19.448;2023-03-08T02:16:57;2.64;96.99
68274;SHT30;55104;47.356;19.448;2023-03-08T02:20:09;2.63;97.03
68274;SHT30;55104;47.356;19.448;2023-03-08T02:23:18;2.66;96.98
68274;SHT30;55104;47.356;19.448;2023-03-08T02:26:21;2.70;96.86
68274;SHT30;55104;47.356;19.448;2023-03-08T02:29:23;2.64;96.67
68274;SHT30;55104;47.356;19.448;2023-03-08T02:32:28;2.60;96.66
68274;SHT30;55104;47.356;19.448;2023-03-08T02:35:30;2.57;96.71
68274;SHT30;55104;47.356;19.448;2023-03-08T02:38:33;2.56;96.62
68274;SHT30;55104;47.356;19.448;2023-03-08T02:41:35;2.58;96.55
68274;SHT30;55104;47.356;19.448;2023-03-08T02:44:37;2.56;96.62
68274;SHT30;55104;47.356;19.448;2023-03-08T02:47:39;2.54;96.58
68274;SHT30;55104;47.356;19.448;2023-03-08T02:50:41;2.53;96.49
68274;SHT30;55104;47.356;19.448;2023-03-08T02:53:43;2.53;96.53
68274;SHT30;55104;47.356;19.448;2023-03-08T02:56:45;2.54;96.47
68274;SHT30;55104;47.356;19.448;2023-03-08T02:59:48;2.54;96.40
68274;SHT30;55104;47.356;19.448;2023-03-08T03:02:51;2.53;96.47
68274;SHT30;55104;47.356;19.448;2023-03-08T03:05:54;2.52;96.48
68274;SHT30;55104;47.356;19.448;2023-03-08T03:09:07;2.58;96.45
68274;SHT30;55104;47.356;19.448;2023-03-08T03:12:09;2.52;96.38
68274;SHT30;55104;47.356;19.448;2023-03-08T03:15:14;2.53;96.50
68274;SHT30;55104;47.356;19.448;2023-03-08T03:18:18;2.52;96.44
68274;SHT30;55104;47.356;19.448;2023-03-08T03:21:21;2.53;96.47
68274;SHT30;55104;47.356;19.448;2023-03-08T03:24:23;2.50;96.48
68274;SHT30;55104;47.356;19.448;2023-03-08T03:27:29;2.53;96.46
68274;SHT30;55104;47.356;19.448;2023-03-08T03:30:31;2.50;96.44
68274;SHT30;55104;47.356;19.448;2023-03-08T03:33:35;2.39;96.45
68274;SHT30;55104;47.356;19.448;2023-03-08T03:36:38;2.53;96.39
68274;SHT30;55104;47.356;19.448;2023-03-08T03:39:40;2.45;96.50
68274;SHT30;55104;47.356;19.448;2023-03-08T03:42:47;2.46;96.38
68274;SHT30;55104;47.356;19.448;2023-03-08T03:46:01;2.47;96.43
68274;SHT30;55104;47.356;19.448;2023-03-08T03:49:04;2.40;96.52
68274;SHT30;55104;47.356;19.448;2023-03-08T03:52:11;2.49;96.20
68274;SHT30;55104;47.356;19.448;2023-03-08T03:55:18;2.37;96.15
68274;SHT30;55104;47.356;19.448;2023-03-08T03:58:21;2.42;96.13
68274;SHT30;55104;47.356;19.448;2023-03-08T04:01:27;2.22;96.01
68274;SHT30;55104;47.356;19.448;2023-03-08T04:04:37;2.19;96.19
68274;SHT30;55104;47.356;19.448;2023-03-08T04:07:39;2.11;96.54
68274;SHT30;55104;47.356;19.448;2023-03-08T04:10:42;2.12;96.64
68274;SHT30;55104;47.356;19.448;2023-03-08T04:13:44;2.19;96.49
68274;SHT30;55104;47.356;19.448;2023-03-08T04:16:47;2.07;96.62
68274;SHT30;55104;47.356;19.448;2023-03-08T04:20:00;2.02;96.49
68274;SHT30;55104;47.356;19.448;2023-03-08T04:23:07;1.97;96.86
68274;SHT30;55104;47.356;19.448;2023-03-08T04:26:13;2.02;96.76
68274;SHT30;55104;47.356;19.448;2023-03-08T04:29:16;2.04;96.74
68274;SHT30;55104;47.356;19.448;2023-03-08T04:32:19;2.02;96.69
68274;SHT30;55104;47.356;19.448;2023-03-08T04:35:26;2.04;96.78
68274;SHT30;55104;47.356;19.448;2023-03-08T04:38:29;2.01;96.70
68274;SHT30;55104;47.356;19.448;2023-03-08T04:41:33;1.93;96.91
68274;SHT30;55104;47.356;19.448;2023-03-08T04:44:54;1.94;96.77
68274;SHT30;55104;47.356;19.448;2023-03-08T04:47:57;1.98;96.71
68274;SHT30;55104;47.356;19.448;2023-03-08T04:51:02;1.95;96.54
68274;SHT30;55104;47.356;19.448;2023-03-08T04:54:04;1.98;96.55
68274;SHT30;55104;47.356;19.448;2023-03-08T04:57:12;1.95;96.49
68274;SHT30;55104;47.356;19.448;2023-03-08T05:00:15;1.90;96.29
68274;SHT30;55104;47.356;19.448;2023-03-08T05:03:18;1.88;96.28
68274;SHT30;55104;47.356;19.448;2023-03-08T05:06:24;1.80;96.11
68274;SHT30;55104;47.356;19.448;2023-03-08T05:09:28;1.70;95.83
68274;SHT30;55104;47.356;19.448;2023-03-08T05:12:31;1.49;96.04
68274;SHT30;55104;47.356;19.448;2023-03-08T05:15:34;1.57;96.13
68274;SHT30;55104;47.356;19.448;2023-03-08T05:18:37;1.57;96.19
68274;SHT30;55104;47.356;19.448;2023-03-08T05:21:40;1.60;96.02
68274;SHT30;55104;47.356;19.448;2023-03-08T05:24:43;1.59;95.79
68274;SHT30;55104;47.356;19.448;2023-03-08T05:27:47;1.56;95.64
68274;SHT30;55104;47.356;19.448;2023-03-08T05:31:20;1.56;95.51
68274;SHT30;55104;47.356;19.448;2023-03-08T05:34:23;1.62;95.62
68274;SHT30;55104;47.356;19.448;2023-03-08T05:37:25;1.64;95.48
68274;SHT30;55104;47.356;19.448;2023-03-08T05:40:30;1.54;95.18
68274;SHT30;55104;47.356;19.448;2023-03-08T05:43:34;1.59;95.46
68274;SHT30;55104;47.356;19.448;2023-03-08T05:46:39;1.63;95.39
68274;SHT30;55104;47.356;19.448;2023-03-08T05:49:44;1.68;95.60
68274;SHT30;55104;47.356;19.448;2023-03-08T05:52:47;1.71;95.62
68274;SHT30;55104;47.356;19.448;2023-03-08T05:55:54;1.78;95.52
68274;SHT30;55104;47.356;19.448;2023-03-08T05:58:57;1.90;95.39
68274;SHT30;55104;47.356;19.448;2023-03-08T06:02:01;1.98;95.22
68274;SHT30;55104;47.356;19.448;2023-03-08T06:05:17;2.08;95.22
68274;SHT30;55104;47.356;19.448;2023-03-08T06:08:21;2.18;95.17
68274;SHT30;55104;47.356;19.448;2023-03-08T06:11:24;2.21;95.10
68274;SHT30;55104;47.356;19.448;2023-03-08T06:14:29;2.22;94.99
68274;SHT30;55104;47.356;19.448;2023-03-08T06:17:31;2.24;95.01
68274;SHT30;55104;47.356;19.448;2023-03-08T06:20:33;2.22;95.08
68274;SHT30;55104;47.356;19.448;2023-03-08T06:23:36;2.33;94.78
68274;SHT30;55104;47.356;19.448;2023-03-08T06:26:38;2.45;94.71
68274;SHT30;55104;47.356;19.448;2023-03-08T06:29:41;2.52;94.69
68274;SHT30;55104;47.356;19.448;2023-03-08T06:32:43;2.57;94.46
68274;SHT30;55104;47.356;19.448;2023-03-08T06:35:59;2.67;94.41
68274;SHT30;55104;47.356;19.448;2023-03-08T06:39:02;2.83;94.17
68274;SHT30;55104;47.356;19.448;2023-03-08T06:42:05;2.98;93.94
68274;SHT30;55104;47.356;19.448;2023-03-08T06:45:09;3.09;93.45
68274;SHT30;55104;47.356;19.448;2023-03-08T06:48:12;3.25;93.40
68274;SHT30;55104;47.356;19.448;2023-03-08T06:51:15;3.40;93.04
68274;SHT30;55104;47.356;19.448;2023-03-08T06:54:19;3.49;92.68
68274;SHT30;55104;47.356;19.448;2023-03-08T06:57:22;3.67;92.80
68274;SHT30;55104;47.356;19.448;2023-03-08T07:00:25;3.85;92.36
68274;SHT30;55104;47.356;19.448;2023-03-08T07:03:27;3.81;91.51
68274;SHT30;55104;47.356;19.448;2023-03-08T07:06:29;3.91;91.62
68274;SHT30;55104;47.356;19.448;2023-03-08T07:09:31;4.01;91.45
68274;SHT30;55104;47.356;19.448;2023-03-08T07:12:33;4.06;91.18
68274;SHT30;55104;47.356;19.448;2023-03-08T07:15:38;4.12;90.98
68274;SHT30;55104;47.356;19.448;2023-03-08T07:18:41;4.29;90.96
68274;SHT30;55104;47.356;19.448;2023-03-08T07:21:43;4.33;90.97
68274;SHT30;55104;47.356;19.448;2023-03-08T07:24:46;4.48;90.43
68274;SHT30;55104;47.356;19.448;2023-03-08T07:27:50;4.64;90.20
68274;SHT30;55104;47.356;19.448;2023-03-08T07:30:52;4.84;89.74
68274;SHT30;55104;47.356;19.448;2023-03-08T07:33:55;5.04;89.22
68274;SHT30;55104;47.356;19.448;2023-03-08T07:36:57;5.22;88.53
68274;SHT30;55104;47.356;19.448;2023-03-08T07:39:59;5.29;88.16
68274;SHT30;55104;47.356;19.448;2023-03-08T07:43:01;5.36;87.71
68274;SHT30;55104;47.356;19.448;2023-03-08T07:46:27;5.46;87.75
68274;SHT30;55104;47.356;19.448;2023-03-08T07:49:29;5.57;88.05
68274;SHT30;55104;47.356;19.448;2023-03-08T07:52:31;5.69;87.61
68274;SHT30;55104;47.356;19.448;2023-03-08T07:55:35;5.94;85.98
68274;SHT30;55104;47.356;19.448;2023-03-08T07:58:37;6.29;85.82
68274;SHT30;55104;47.356;19.448;2023-03-08T08:01:40;6.71;84.28
68274;SHT30;55104;47.356;19.448;2023-03-08T08:04:42;7.02;82.97
68274;SHT30;55104;47.356;19.448;2023-03-08T08:07:46;7.18;82.47
68274;SHT30;55104;47.356;19.448;2023-03-08T08:10:48;7.18;79.86
68274;SHT30;55104;47.356;19.448;2023-03-08T08:13:50;7.20;77.21
68274;SHT30;55104;47.356;19.448;2023-03-08T08:16:52;7.27;76.88
68274;SHT30;55104;47.356;19.448;2023-03-08T08:19:54;7.45;76.91
68274;SHT30;55104;47.356;19.448;2023-03-08T08:22:56;7.57;74.52
68274;SHT30;55104;47.356;19.448;2023-03-08T08:25:59;7.84;73.42
68274;SHT30;55104;47.356;19.448;2023-03-08T08:29:01;7.95;73.67
68274;SHT30;55104;47.356;19.448;2023-03-08T08:32:04;7.99;72.76
68274;SHT30;55104;47.356;19.448;2023-03-08T08:35:06;7.90;72.37
68274;SHT30;55104;47.356;19.448;2023-03-08T08:38:08;7.91;71.29
68274;SHT30;55104;47.356;19.448;2023-03-08T08:41:11;7.99;71.23
68274;SHT30;55104;47.356;19.448;2023-03-08T08:44:15;8.06;71.42
68274;SHT30;55104;47.356;19.448;2023-03-08T08:47:18;8.18;70.85
68274;SHT30;55104;47.356;19.448;2023-03-08T08:50:20;8.03;71.60
68274;SHT30;55104;47.356;19.448;2023-03-08T08:53:22;8.21;70.18
68274;SHT30;55104;47.356;19.448;2023-03-08T08:56:26;8.60;72.35
68274;SHT30;55104;47.356;19.448;2023-03-08T08:59:32;8.74;69.38
68274;SHT30;55104;47.356;19.448;2023-03-08T09:02:35;8.89;68.68
68274;SHT30;55104;47.356;19.448;2023-03-08T09:05:40;9.01;67.08
68274;SHT30;55104;47.356;19.448;2023-03-08T09:08:42;8.71;67.01
68274;SHT30;55104;47.356;19.448;2023-03-08T09:11:44;8.94;67.11
68274;SHT30;55104;47.356;19.448;2023-03-08T09:14:56;9.40;66.25
68274;SHT30;55104;47.356;19.448;2023-03-08T09:17:58;9.84;66.29
68274;SHT30;55104;47.356;19.448;2023-03-08T09:21:00;10.13;63.41
68274;SHT30;55104;47.356;19.448;2023-03-08T09:24:04;9.69;62.71
68274;SHT30;55104;47.356;19.448;2023-03-08T09:27:07;9.57;63.58
68274;SHT30;55104;47.356;19.448;2023-03-08T09:30:12;9.76;61.72
68274;SHT30;55104;47.356;19.448;2023-03-08T09:33:15;9.64;59.36
68274;SHT30;55104;47.356;19.448;2023-03-08T09:36:17;9.64;60.90
68274;SHT30;55104;47.356;19.448;2023-03-08T09:39:20;9.77;61.06
68274;SHT30;55104;47.356;19.448;2023-03-08T09:42:26;9.64;59.70
68274;SHT30;55104;47.356;19.448;2023-03-08T09:45:29;9.43;59.36
68274;SHT30;55104;47.356;19.448;2023-03-08T09:48:32;9.39;60.44
68274;SHT30;55104;47.356;19.448;2023-03-08T09:51:37;9.56;61.42
68274;SHT30;55104;47.356;19.448;2023-03-08T09:54:41;9.58;57.43
68274;SHT30;55104;47.356;19.448;2023-03-08T09:57:50;9.50;55.69
68274;SHT30;55104;47.356;19.448;2023-03-08T10:00:56;9.77;56.30
68274;SHT30;55104;47.356;19.448;2023-03-08T10:11:18;10.83;54.74
68274;SHT30;55104;47.356;19.448;2023-03-08T10:14:26;11.14;55.33
68274;SHT30;55104;47.356;19.448;2023-03-08T10:20:57;11.39;52.25
68274;SHT30;55104;47.356;19.448;2023-03-08T10:24:14;11.31;51.81
68274;SHT30;55104;47.356;19.448;2023-03-08T10:27:30;10.67;51.68
68274;SHT30;55104;47.356;19.448;2023-03-08T10:30:36;10.57;51.58
68274;SHT30;55104;47.356;19.448;2023-03-08T10:33:38;10.74;53.55
68274;SHT30;55104;47.356;19.448;2023-03-08T10:36:52;10.78;51.80
68274;SHT30;55104;47.356;19.448;2023-03-08T10:39:55;11.10;51.92
68274;SHT30;55104;47.356;19.448;2023-03-08T10:43:05;11.31;51.98
68274;SHT30;55104;47.356;19.448;2023-03-08T10:46:12;11.42;48.97
68274;SHT30;55104;47.356;19.448;2023-03-08T10:49:17;11.50;50.45
68274;SHT30;55104;47.356;19.448;2023-03-08T10:52:24;11.66;50.36
68274;SHT30;55104;47.356;19.448;2023-03-08T10:55:27;11.76;48.88
68274;SHT30;55104;47.356;19.448;2023-03-08T10:58:37;11.88;50.86
68274;SHT30;55104;47.356;19.448;2023-03-08T11:01:51;11.78;50.86
68274;SHT30;55104;47.356;19.448;2023-03-08T11:04:56;12.28;49.18
68274;SHT30;55104;47.356;19.448;2023-03-08T11:07:58;12.59;48.47
68274;SHT30;55104;47.356;19.448;2023-03-08T11:11:09;12.80;48.55
68274;SHT30;55104;47.356;19.448;2023-03-08T11:14:12;12.45;46.98
68274;SHT30;55104;47.356;19.448;2023-03-08T11:20:32;12.36;47.05
68274;SHT30;55104;47.356;19.448;2023-03-08T11:23:42;11.88;46.70
68274;SHT30;55104;47.356;19.448;2023-03-08T11:30:08;11.78;48.13
68274;SHT30;55104;47.356;19.448;2023-03-08T11:39:45;12.13;48.58
68274;SHT30;55104;47.356;19.448;2023-03-08T11:50:29;12.36;46.14
68274;SHT30;55104;47.356;19.448;2023-03-08T11:53:59;12.83;46.51
68274;SHT30;55104;47.356;19.448;2023-03-08T11:57:10;12.79;44.26
68274;SHT30;55104;47.356;19.448;2023-03-08T12:00:29;12.91;45.27
68274;SHT30;55104;47.356;19.448;2023-03-08T12:03:43;12.81;45.75
68274;SHT30;55104;47.356;19.448;2023-03-08T12:06:46;12.91;45.39
68274;SHT30;55104;47.356;19.448;2023-03-08T12:10:20;12.84;45.29
68274;SHT30;55104;47.356;19.448;2023-03-08T12:13:34;12.94;44.39
68274;SHT30;55104;47.356;19.448;2023-03-08T12:19:48;12.98;45.45
68274;SHT30;55104;47.356;19.448;2023-03-08T12:23:11;12.77;44.80
68274;SHT30;55104;47.356;19.448;2023-03-08T12:26:25;12.63;45.47
68274;SHT30;55104;47.356;19.448;2023-03-08T12:29:40;12.29;46.12
68274;SHT30;55104;47.356;19.448;2023-03-08T12:32:44;11.95;46.29
68274;SHT30;55104;47.356;19.448;2023-03-08T12:36:03;11.93;47.45
68274;SHT30;55104;47.356;19.448;2023-03-08T12:42:39;11.76;46.79
68274;SHT30;55104;47.356;19.448;2023-03-08T12:46:03;11.33;46.90
68274;SHT30;55104;47.356;19.448;2023-03-08T12:49:18;11.32;47.34
68274;SHT30;55104;47.356;19.448;2023-03-08T12:52:30;11.50;47.76
68274;SHT30;55104;47.356;19.448;2023-03-08T12:55:34;11.71;47.58
68274;SHT30;55104;47.356;19.448;2023-03-08T13:02:01;11.98;47.07
68274;SHT30;55104;47.356;19.448;2023-03-08T13:05:36;12.04;47.01
68274;SHT30;55104;47.356;19.448;2023-03-08T13:08:42;12.17;46.87
68274;SHT30;55104;47.356;19.448;2023-03-08T13:11:50;12.25;46.66
68274;SHT30;55104;47.356;19.448;2023-03-08T13:15:18;12.25;46.47
68274;SHT30;55104;47.356;19.448;2023-03-08T13:18:23;12.59;46.93
68274;SHT30;55104;47.356;19.448;2023-03-08T13:21:35;12.87;46.18
68274;SHT30;55104;47.356;19.448;2023-03-08T13:31:28;13.00;45.21
68274;SHT30;55104;47.356;19.448;2023-03-08T13:34:33;12.96;45.58
68274;SHT30;55104;47.356;19.448;2023-03-08T13:37:35;12.86;46.31
68274;SHT30;55104;47.356;19.448;2023-03-08T13:40:37;13.05;46.16
68274;SHT30;55104;47.356;19.448;2023-03-08T13:43:42;13.19;46.19
68274;SHT30;55104;47.356;19.448;2023-03-08T13:46:46;13.00;47.62
68274;SHT30;55104;47.356;19.448;2023-03-08T13:49:50;13.08;47.34
68274;SHT30;55104;47.356;19.448;2023-03-08T13:52:54;12.98;47.91
68274;SHT30;55104;47.356;19.448;2023-03-08T13:55:58;12.88;48.06
68274;SHT30;55104;47.356;19.448;2023-03-08T13:59:01;12.88;48.66
68274;SHT30;55104;47.356;19.448;2023-03-08T14:02:17;12.80;47.20
68274;SHT30;55104;47.356;19.448;2023-03-08T14:05:31;12.69;47.91
68274;SHT30;55104;47.356;19.448;2023-03-08T14:08:33;12.77;48.85
68274;SHT30;55104;47.356;19.448;2023-03-08T14:11:38;12.60;49.16
68274;SHT30;55104;47.356;19.448;2023-03-08T14:14:42;12.57;50.65
68274;SHT30;55104;47.356;19.448;2023-03-08T14:17:45;12.50;51.28
68274;SHT30;55104;47.356;19.448;2023-03-08T14:21:23;12.41;51.43
68274;SHT30;55104;47.356;19.448;2023-03-08T14:24:35;12.33;52.04
68274;SHT30;55104;47.356;19.448;2023-03-08T14:27:40;12.24;52.72
68274;SHT30;55104;47.356;19.448;2023-03-08T14:30:46;12.21;53.18
68274;SHT30;55104;47.356;19.448;2023-03-08T14:33:59;12.10;53.15
68274;SHT30;55104;47.356;19.448;2023-03-08T14:40:25;12.14;54.79
68274;SHT30;55104;47.356;19.448;2023-03-08T14:43:27;12.11;54.60
68274;SHT30;55104;47.356;19.448;2023-03-08T14:46:30;12.04;55.35
68274;SHT30;55104;47.356;19.448;2023-03-08T14:49:34;12.01;56.21
68274;SHT30;55104;47.356;19.448;2023-03-08T14:52:45;11.98;56.18
68274;SHT30;55104;47.356;19.448;2023-03-08T14:55:47;11.91;56.86
68274;SHT30;55104;47.356;19.448;2023-03-08T14:58:50;11.94;57.28
68274;SHT30;55104;47.356;19.448;2023-03-08T15:01:53;11.97;57.19
68274;SHT30;55104;47.356;19.448;2023-03-08T15:04:55;11.91;57.39
68274;SHT30;55104;47.356;19.448;2023-03-08T15:07:58;11.87;57.64
68274;SHT30;55104;47.356;19.448;2023-03-08T15:11:01;11.88;57.85
68274;SHT30;55104;47.356;19.448;2023-03-08T15:14:03;11.86;58.08
68274;SHT30;55104;47.356;19.448;2023-03-08T15:17:05;11.88;58.36
68274;SHT30;55104;47.356;19.448;2023-03-08T15:20:10;11.86;58.60
68274;SHT30;55104;47.356;19.448;2023-03-08T15:23:18;11.86;59.24
68274;SHT30;55104;47.356;19.448;2023-03-08T15:26:24;11.87;59.36
68274;SHT30;55104;47.356;19.448;2023-03-08T15:29:28;11.81;60.12
68274;SHT30;55104;47.356;19.448;2023-03-08T15:32:30;11.78;60.39
68274;SHT30;55104;47.356;19.448;2023-03-08T15:35:32;11.81;61.19
68274;SHT30;55104;47.356;19.448;2023-03-08T15:38:34;11.83;61.29
68274;SHT30;55104;47.356;19.448;2023-03-08T15:41:37;11.84;61.81
68274;SHT30;55104;47.356;19.448;2023-03-08T15:44:39;11.76;62.20
68274;SHT30;55104;47.356;19.448;2023-03-08T15:47:41;11.67;62.51
68274;SHT30;55104;47.356;19.448;2023-03-08T15:50:44;11.65;63.10
68274;SHT30;55104;47.356;19.448;2023-03-08T15:53:47;11.62;63.49
68274;SHT30;55104;47.356;19.448;2023-03-08T15:56:49;11.47;63.94
68274;SHT30;55104;47.356;19.448;2023-03-08T15:59:52;11.47;64.30
68274;SHT30;55104;47.356;19.448;2023-03-08T16:02:55;11.46;64.65
68274;SHT30;55104;47.356;19.448;2023-03-08T16:05:58;11.38;64.96
68274;SHT30;55104;47.356;19.448;2023-03-08T16:09:00;11.29;65.13
68274;SHT30;55104;47.356;19.448;2023-03-08T16:12:02;11.16;66.01
68274;SHT30;55104;47.356;19.448;2023-03-08T16:15:05;11.18;66.29
68274;SHT30;55104;47.356;19.448;2023-03-08T16:18:07;11.12;66.71
68274;SHT30;55104;47.356;19.448;2023-03-08T16:21:10;11.03;67.05
68274;SHT30;55104;47.356;19.448;2023-03-08T16:24:12;10.98;67.37
68274;SHT30;55104;47.356;19.448;2023-03-08T16:27:15;10.88;67.82
68274;SHT30;55104;47.356;19.448;2023-03-08T16:30:17;10.85;67.93
68274;SHT30;55104;47.356;19.448;2023-03-08T16:33:20;10.84;68.23
68274;SHT30;55104;47.356;19.448;2023-03-08T16:36:22;10.80;68.66
68274;SHT30;55104;47.356;19.448;2023-03-08T16:39:24;10.81;69.09
68274;SHT30;55104;47.356;19.448;2023-03-08T16:42:28;10.77;69.31
68274;SHT30;55104;47.356;19.448;2023-03-08T16:45:30;10.74;69.56
68274;SHT30;55104;47.356;19.448;2023-03-08T16:48:32;10.74;69.51
68274;SHT30;55104;47.356;19.448;2023-03-08T16:51:35;10.83;69.67
68274;SHT30;55104;47.356;19.448;2023-03-08T16:54:39;10.81;69.94
68274;SHT30;55104;47.356;19.448;2023-03-08T16:57:41;10.90;69.83
68274;SHT30;55104;47.356;19.448;2023-03-08T17:00:43;10.90;69.73
68274;SHT30;55104;47.356;19.448;2023-03-08T17:03:45;10.90;70.00
68274;SHT30;55104;47.356;19.448;2023-03-08T17:06:48;10.97;70.10
68274;SHT30;55104;47.356;19.448;2023-03-08T17:09:51;11.04;70.09
68274;SHT30;55104;47.356;19.448;2023-03-08T17:12:53;11.07;70.21
68274;SHT30;55104;47.356;19.448;2023-03-08T17:15:55;11.08;70.32
68274;SHT30;55104;47.356;19.448;2023-03-08T17:18:59;11.07;70.49
68274;SHT30;55104;47.356;19.448;2023-03-08T17:22:01;11.10;70.44
68274;SHT30;55104;47.356;19.448;2023-03-08T17:25:04;11.11;70.70
68274;SHT30;55104;47.356;19.448;2023-03-08T17:28:06;11.16;70.78
68274;SHT30;55104;47.356;19.448;2023-03-08T17:31:14;11.19;70.92
68274;SHT30;55104;47.356;19.448;2023-03-08T17:34:17;11.12;71.13
68274;SHT30;55104;47.356;19.448;2023-03-08T17:37:22;11.10;71.33
68274;SHT30;55104;47.356;19.448;2023-03-08T17:40:24;11.03;71.73
68274;SHT30;55104;47.356;19.448;2023-03-08T17:43:26;11.04;72.17
68274;SHT30;55104;47.356;19.448;2023-03-08T17:46:28;10.97;72.67
68274;SHT30;55104;47.356;19.448;2023-03-08T17:49:31;10.93;72.74
68274;SHT30;55104;47.356;19.448;2023-03-08T17:52:35;10.95;72.99
68274;SHT30;55104;47.356;19.448;2023-03-08T17:55:39;10.93;73.30
68274;SHT30;55104;47.356;19.448;2023-03-08T17:58:42;10.88;73.53
68274;SHT30;55104;47.356;19.448;2023-03-08T18:01:44;10.80;73.86
68274;SHT30;55104;47.356;19.448;2023-03-08T18:04:48;10.78;74.20
68274;SHT30;55104;47.356;19.448;2023-03-08T18:07:50;10.85;74.09
68274;SHT30;55104;47.356;19.448;2023-03-08T18:10:52;10.81;74.22
68274;SHT30;55104;47.356;19.448;2023-03-08T18:13:54;10.77;74.49
68274;SHT30;55104;47.356;19.448;2023-03-08T18:16:56;10.76;74.63
68274;SHT30;55104;47.356;19.448;2023-03-08T18:19:59;10.77;74.74
68274;SHT30;55104;47.356;19.448;2023-03-08T18:23:02;10.73;74.87
68274;SHT30;55104;47.356;19.448;2023-03-08T18:26:05;10.63;75.03
68274;SHT30;55104;47.356;19.448;2023-03-08T18:29:07;10.64;75.16
68274;SHT30;55104;47.356;19.448;2023-03-08T18:32:09;10.57;75.51
68274;SHT30;55104;47.356;19.448;2023-03-08T18:35:12;10.53;75.69
68274;SHT30;55104;47.356;19.448;2023-03-08T18:38:14;10.50;75.84
68274;SHT30;55104;47.356;19.448;2023-03-08T18:41:21;10.48;75.98
68274;SHT30;55104;47.356;19.448;2023-03-08T18:44:26;10.46;76.23
68274;SHT30;55104;47.356;19.448;2023-03-08T18:47:28;10.39;76.32
68274;SHT30;55104;47.356;19.448;2023-03-08T18:50:30;10.36;76.39
68274;SHT30;55104;47.356;19.448;2023-03-08T18:53:32;10.31;76.81
68274;SHT30;55104;47.356;19.448;2023-03-08T18:56:35;10.31;76.83
68274;SHT30;55104;47.356;19.448;2023-03-08T18:59:38;10.26;77.08
68274;SHT30;55104;47.356;19.448;2023-03-08T19:02:40;10.31;76.88
68274;SHT30;55104;47.356;19.448;2023-03-08T19:05:42;10.46;76.72
68274;SHT30;55104;47.356;19.448;2023-03-08T19:08:45;10.52;76.44
68274;SHT30;55104;47.356;19.448;2023-03-08T19:11:47;10.53;76.48
68274;SHT30;55104;47.356;19.448;2023-03-08T19:14:49;10.43;76.70
68274;SHT30;55104;47.356;19.448;2023-03-08T19:17:54;10.61;76.19
68274;SHT30;55104;47.356;19.448;2023-03-08T19:20:56;10.67;76.04
68274;SHT30;55104;47.356;19.448;2023-03-08T19:23:59;10.57;76.25
68274;SHT30;55104;47.356;19.448;2023-03-08T19:27:01;10.59;76.29
68274;SHT30;55104;47.356;19.448;2023-03-08T19:30:05;10.63;76.09
68274;SHT30;55104;47.356;19.448;2023-03-08T19:33:07;10.52;76.51
68274;SHT30;55104;47.356;19.448;2023-03-08T19:36:17;10.59;76.40
68274;SHT30;55104;47.356;19.448;2023-03-08T19:39:22;10.64;76.23
68274;SHT30;55104;47.356;19.448;2023-03-08T19:42:25;10.67;76.14
68274;SHT30;55104;47.356;19.448;2023-03-08T19:45:27;10.64;76.24
68274;SHT30;55104;47.356;19.448;2023-03-08T19:48:30;10.60;76.36
68274;SHT30;55104;47.356;19.448;2023-03-08T19:51:32;10.57;76.49
68274;SHT30;55104;47.356;19.448;2023-03-08T19:54:35;10.48;76.81
68274;SHT30;55104;47.356;19.448;2023-03-08T19:57:37;10.53;76.78
68274;SHT30;55104;47.356;19.448;2023-03-08T20:00:40;10.49;76.68
68274;SHT30;55104;47.356;19.448;2023-03-08T20:03:45;10.45;76.73
68274;SHT30;55104;47.356;19.448;2023-03-08T20:06:48;10.49;76.67
68274;SHT30;55104;47.356;19.448;2023-03-08T20:09:51;10.57;76.41
68274;SHT30;55104;47.356;19.448;2023-03-08T20:12:54;10.60;76.41